Dutch
Home     News     Corporate     Events & Tours     Flight ops     Crew centre      
My transavia virtual    Join us    Last logs    Who is flying    Forum    Software    Training    VRTS     
 

view flightdata
view flightplan
view OFP
view flightlog



flightdata:
pilot: Hubert Schepers
flight: TRA749
from: EGGW (London Luton)
to: EHRD (Rotterdam)
date: 25-07-2019
departure: 12:02z
arrival: 12:40z
duration: 0:35
aircraft: B738 (PHHSJ)
distance: 199 NM
touchdown: -544 ft/m @ 162 KIAS



flightplan:
-(FPL-TRA749-IS
-B738/M-SDEEFGIRWXY/LB1
-EGGW1213
-N0363F190 MATCH Q295 BRAIN M197 REDFA
-EHRD0037 EHEH
-PBN/A1B1D1O1S1 DOF/190725 REG/PHHSJ EET/EHAA0020 SEL/JQLP RVR/200 OPR/TRA)



operational flightplan (OFP):
DISPATCH BRIEFING (TEL:
--------- --------- --------- --------- --------- --------- ---------  
PREDEPARTURE ATC CLEARANCE:
.
.
--------- --------- --------- --------- --------- --------- ---------  
OFP  1    25 JUL 19/11:58
                                    OBS  ASKY

TRA749     C/S TRA4211  EGGW/LTN   EHRD/RTM         CRZ SYS     CI 11
25 JUL 19  PH-HSJ       1935/1935  2022/2027        GND DIST      199
           TAB:.....    CTOT:....  STA  2035        AIR DIST      181
                                                    AVG W/C      T029
MAXIMUM    ZFW  62731  LAW  66360  TOW  78975       AVG ISA       P08
ESTIMATED  ZFW  61846  LAW  64138  TOW  65786       F-F FACTOR    0.0
ACTUAL     ZFW  .....  LAW  .....  TOW  .....
--------- --------- --------- --------- --------- --------- ---------
TRIP        1648   0037           .....  .....
CONT         190   0005           .....  .....
ALTN         962   0021  EHEH     .....  .....  ....
FINAL       1140   0030           .....  .....
ADDNL          0   0000           .....  .....
TANKERING                  
PLN TOF     3940   0133
DIFF        ....   ....
PLN TOF     ....   ....  (CORRECTED)   
EXTRA          0   ....                  
TOF         3940   ....                 
TAXI         120   ....                  
BLOCK       4060   ....        
--------- --------- --------- --------- --------- --------- ---------
REASON EXTRA FUEL      MATRIX FUEL:
O ECN-ECONAMICAL     O TMP-TEMPORARILY      O ATC-AIR TRAFFIC CNTRL
O FOB-FUEL ON.BOARD  O MSC-MISCELLANEOUS    O FPC-FLIGHT PLN CORR
O WXR-WEATHER        O TEC-TECHNICAL        ACT.CI/CRZ USED: . . .   

--------- --------- --------- --------- --------- --------- ---------

ZFW ZFW 1000 : PLN TOF   XXXXX/TRIP XXXXX 00 MIN HOLD DEST: 0 EXTRA
ZFW ZFW-1000 : PLN TOF   XXXXX/TRIP XXXXX
--------- --------- --------- --------- --------- --------- ---------
COMMANDERS NAME:                           SIGNATURE:

--------- --------- --------- --------- --------- --------- ---------
FROM:  EGGW ELEV526      TO: EHRD ELEV-14        ALTN: EHEH ELEV  74
ATC C/S     : TRA42TRA749             AVG ISA : P08
CO-ROUTE    :                        AVG TT  :   
FMC-RES FUEL: 2102                   AVG W/C : T029
CRZ ALT     : FL190                  FL310
CI          : CI 11                  FL200     253/032
                                     FL100

EGGW/08  N0363F190 MATC1C MATCH Q295 BRAIN M197 REDFA REDF2R EHRD/24

--------- --------- --------- --------- --------- --------- ---------
.
.
--------- --------- --------- --------- --------- --------- ---------
RVSM ALT CHECK:  FL:...... LEFT: ...... STBY: ...... RIGHT: ......

--------- --------- --------- --------- --------- --------- ---------
DESTINATION ALTERNATE EHEH
--------- --------- --------- --------- --------- --------- ---------

--------- --------- --------- --------- --------- --------- ---------
--------- --------- --------- --------- --------- --------- ---------
ALTERNATE SUMMARY
--------- --------- --------- --------- --------- --------- ---------
      ALTN        DIST   LVL       WC TIME  FUEL VIA
      EHEH/21       79  3000     T006 0021   962 INKE1B INKET INKE2E
INFO/EBBR/25R     104  FL100    H006 0025  1174 WOOD1B WOODY WODY3B
INFO/EDLV/09      128  FL090    T004 0030  1316 ARNE2B ARNEM T196 TEBRO
                                           P71 PISAP Z850 SOBTU
                                           SOBT1W
INFO/EHAM/24      159  FL090    T002 0036  1566 WOOD1B WOODY N872 NIK
                                           L179 HELEN HELE1A
--------- --------- --------- --------- --------- --------- ---------


-(FPL-TRA749-IS
-B738/M-SDE2E3FGIRWXY/LB1
-EGGW1213
-N0363F190 MATCH Q295 BRAIN M197 REDFA
-EHRD0037 EHEH
-PBN/A1B1D1O1S1 DOF/190725 REG/PHHSJ EET/EHAA0020 SEL/JQLP RVR/200 OPR/TRA)

WEATHER BRIEFING - GENERATED 25 JUL 2019 11:58 UTC
--------------------------------------------------------------------------------

EGGW EHRD EHEH EBBR EDLV EHAM

--------------------------------------------------------------------------------
ORIGIN: EGGW (LONDON LUTON)
--------------------------------------------------------------------------------
EGGW 251120Z AUTO 15009KT 110V180 9999 NCD 34/15 Q1010

EGGW 250455Z 2506/2606 13008KT 9999 FEW045 PROB30
      TEMPO 2506/2508 13015G25KT PROB30
      TEMPO 2518/2603 VRB18G30KT 4000  TSRA PROB30
      TEMPO 2603/2606 7000 SHRA


--------------------------------------------------------------------------------
DESTINATION: EHRD (ROTTERDAM)
--------------------------------------------------------------------------------
EHRD 251125Z AUTO 09010KT 050V120 9999 NCD 34/20 Q1013 NOSIG

EHRD 250445Z 2506/2612 10006KT CAVOK


--------------------------------------------------------------------------------
ALTERNATE: EHEH (EINDHOVEN)
--------------------------------------------------------------------------------
EHEH 251125Z AUTO 09006KT 070V150 9999 NCD 37/15 Q1013 10006KT CAVOK

EHEH 250512Z 2506/2612 09004KT CAVOK


--------------------------------------------------------------------------------
ALTERNATE: EBBR (BRUSSELS)
--------------------------------------------------------------------------------
EBBR 251120Z 15005KT 110V200 CAVOK 37/18 Q1014 NOSIG

EBBR 250501Z 2506/2612 10005KT CAVOK=  EDDF 250500Z 2506/2612 04007KT CAVOK


--------------------------------------------------------------------------------
ALTERNATE: EDLV (NIEDERRHEIN)
--------------------------------------------------------------------------------
EDLV 251120Z 12004KT 070V170 CAVOK 35/19 Q1014

EDLV 250500Z 2506/2606 VRB03KT CAVOK
      BECMG 2506/2509 10006KT
      BECMG 2516/2519 VRB03KT


--------------------------------------------------------------------------------
ALTERNATE: EHAM (SCHIPHOL)
--------------------------------------------------------------------------------
EHAM 251125Z 08007KT 050V110 CAVOK 33/19 Q1014 NOSIG

EHAM 250445Z 2506/2612 10007KT CAVOK


NOTAM BRIEFING - GENERATED 25 JUL 2019 11:58 UTC
--------------------------------------------------------------------------------

EGGW EHRD EHEH EHEH EBBR EDLV EHAM

--------------------------------------------------------------------------------
GLOBAL TRANSAVIA.COM VIRTUAL NOTAMS
--------------------------------------------------------------------------------
REF:NIL PLEASE CONTACT OPERATIONS IN CASE OF STRUCTURAL FLIGHTPLAN ERRORS ON FLIGHT-OPS@TRANSAVIA-VIRTUAL.COM
VALID:UFN

REF:NIL
PLEASE CHECK ACARS EVERY 10 MINUTES WHEN FLYING WITH SOUND OFF. AN NEW ACARS MESSAGE PRODUCE A SOUND SIGNAL UNTILL ITS READ. FLOWCONTROL DON'T RECEIVE MUCH REACTION ON OUTGOING ACARS MESSAGES ACCORDING FLIGHTSTATUS.
SOURCE: SPL/HV/OCC/
END VALID: UFN

REF:NIL
PLEASE CONTACT FLOWCONTROL IN CASE OF PROBLEMS WITH ROUTINGS
SOURCE: SPL/HV/OCC/
END VALID: UFN

REF:NIL
IN CASE OF ENGINE-OUT FLY V2 OR V2 20 MAX. UNTIL ABOVE MSA.
LEVEL-OFF AT AN ALTITUDE ROUNDED OFF TO THE FIRST 1000 FT OF THE HIGHEST MSA.
E.G: MSA EHAM; 1.7 AND 2.3 LEVEL-OFF 3000 FT. AFTER LANDING MAKE A REP TO OCC ON 131.975
SOURCE:SPL/HV/OCC
END VALID:UFN



flightlog:
Pilot : Hubert Schepers
Flight: TRA749
From  : EGGW London Luton
To    : EHRD Rotterdam

[FLIGHTLOG] 1.5.4
25-07-2019 11:58:35z, logging started
25-07-2019 11:58:39z, flaps set to 75%
25-07-2019 12:02:35z, parking brake released
25-07-2019 12:02:55z, retracted spoilers
25-07-2019 12:03:25z, take-off at 160 KIAS
25-07-2019 12:03:25z, pos report: 160 KIAS, 00 139 ft, heading 251, winds 302 @ 10 kts
25-07-2019 12:03:25z, flying online @ VATSIM (KLM740)
25-07-2019 12:03:25z, position: near EGLD - Denham
25-07-2019 12:06:38z, flaps set to 62%
25-07-2019 12:06:40z, flaps set to 50%
25-07-2019 12:06:43z, flaps set to 38%
25-07-2019 12:06:47z, flaps set to 25%
25-07-2019 12:06:52z, flaps set to 13%
25-07-2019 12:06:59z, flaps set to 0%
25-07-2019 12:07:04z, retracted gear at 171 KIAS and 6996 ft AGL
25-07-2019 12:13:35z, pos report: 347 KIAS, 14 601 ft, heading 073, winds 308 @ 25 kts
25-07-2019 12:28:36z, pos report: 323 KIAS, 05 868 ft, heading 099, winds 302 @ 25 kts
25-07-2019 12:32:26z, below glideslope
25-07-2019 12:32:29z, flaps set to 13%
25-07-2019 12:32:33z, lowered gear at 214 KIAS and 1549 ft AGL
25-07-2019 12:32:37z, flaps set to 25%
25-07-2019 12:32:42z, flaps set to 38%
25-07-2019 12:38:54z, flaps set to 50%
25-07-2019 12:38:57z, flaps set to 62%
25-07-2019 12:40:13z, touchdown: -544ft/m at 162 KIAS
25-07-2019 12:40:13z, pos report: 162 KIAS, -00 006 ft, heading 238, winds 300 @ 10 kts
25-07-2019 12:40:13z, flying online @ VATSIM (KLM740)
25-07-2019 12:40:13z, position: EHRD - Rotterdam
25-07-2019 12:40:22z, deployed spoilers
25-07-2019 12:40:46z, parking brake set
25-07-2019 12:40:52z, logging ended

©2009-2019, transavia virtual. All rights reserved. This website is only meant for simulation purposes.
This website is not owned by transavia, nor is transavia responsible for the content of this website.